Nearby Weather Observations


KTIP - Rantoul, Illinois, USA
Distance from station: ENE 12mi, 19km
Updated: Mon, 11-Dec-2017 10:15pm CST
Overcast
Overcast
 Wind from NW
Wind: NW 22 mph , 35 km/h, Gust: 30 mph , 48 km/h
Temperature: 36°F , 2°C
Wind Chill: 25°F , -4°C
Dew Point: 32°F , 0°C
Humidity: 87%
Barometer: 29.88 inHg , 1011.9 hPa
Clouds: Overcast
Visibility: 10 miles , 16 km
Cloud details: Overcast 1100 ft
2017/12/12 04:15 KTIP 120415Z AUTO 32019G26KT 10SM OVC011 02/00 A2988 RMK AO2 T00220000
KCMI - Champaign/Urbana, Illinois, USA
Distance from station: SSE 14mi, 22km
Updated: Mon, 11-Dec-2017 9:53pm CST
Overcast
Overcast
 Wind from NW
Wind: NW 23 mph , 37 km/h, Gust: 32 mph , 52 km/h
Temperature: 36°F , 2°C
Wind Chill: 24°F , -4°C
Dew Point: 30°F , -1°C
Humidity: 81%
Barometer: 29.87 inHg , 1011.5 hPa
Clouds: Overcast
Visibility: 10 miles , 16 km
Cloud details: Overcast 1100 ft
2017/12/12 03:53 KCMI 120353Z 31020G28KT 10SM OVC011 02/M01 A2987 RMK AO2 PK WND 31028/0349 SLP121 T00221006
 
KBMI - Bloomington/Norm, Illinois, USA
Distance from station: WNW 34mi, 55km
Updated: Mon, 11-Dec-2017 10:20pm CST
Overcast
Overcast
 Wind from NNW
Wind: NNW 28 mph , 44 km/h, Gust: 36 mph , 57 km/h
Temperature: 34°F , 1°C
Wind Chill: 21°F , -6°C
Dew Point: 28°F , -2°C
Humidity: 81%
Barometer: 29.94 inHg , 1013.9 hPa
Clouds: Overcast
Visibility: 10 miles , 16 km
Cloud details: Overcast 1000 ft
2017/12/12 04:20 KBMI 120420Z AUTO 33024G31KT 10SM OVC010 01/M02 A2994 RMK AO2 PK WND 34031/0420
KDEC - Decatur, Illinois, USA
Distance from station: SW 37mi, 60km
Updated: Mon, 11-Dec-2017 9:54pm CST
Overcast
Overcast
 Wind from NW
Wind: NW 22 mph , 35 km/h, Gust: 29 mph , 46 km/h
Temperature: 37°F , 3°C
Wind Chill: 26°F , -3°C
Dew Point: 32°F , 0°C
Humidity: 81%
Barometer: 29.91 inHg , 1012.9 hPa
Clouds: Overcast
Visibility: 9 miles , 14 km
Cloud details: Overcast 1100 ft
2017/12/12 03:54 KDEC 120354Z 32019G25KT 9SM OVC011 03/00 A2991 RMK AO2 PK WND 32029/0340 SLP133 T00280000
 
KDNV - Danville, Illinois, USA
Distance from station: E 40mi, 65km
Updated: Mon, 11-Dec-2017 10:15pm CST
Overcast
Overcast
 Wind from NW
Wind: NW 24 mph , 39 km/h, Gust: 28 mph , 44 km/h
Temperature: 34°F , 1°C
Wind Chill: 22°F , -6°C
Dew Point: 30°F , -1°C
Humidity: 87%
Barometer: 29.83 inHg , 1010.2 hPa
Clouds: Overcast
Visibility: 10 miles , 16 km
Cloud details: Overcast 1200 ft
2017/12/12 04:15 KDNV 120415Z AUTO 31021G24KT 10SM OVC012 01/M01 A2983 RMK AO2 T00101010
KAAA - Lincoln, Illinois, USA
Distance from station: W 52mi, 83km
Updated: Mon, 11-Dec-2017 10:15pm CST
Overcast
Overcast
 Wind from NNW
Wind: NNW 14 mph , 22 km/h, Gust: 26 mph , 43 km/h
Temperature: 37°F , 3°C
Wind Chill: 28°F , -2°C
Dew Point: 32°F , 0°C
Humidity: 81%
Barometer: 29.96 inHg , 1014.6 hPa
Clouds: Overcast
Visibility: 10 miles , 16 km
Cloud details: Overcast 1500 ft
2017/12/12 04:15 KAAA 120415Z AUTO 33012G23KT 10SM OVC015 03/00 A2996 RMK AO2 T00320003
 
KMTO - Mattoon/Charlest, Illinois, USA
Distance from station: S 52mi, 84km
Updated: Mon, 11-Dec-2017 9:53pm CST
Overcast
Overcast
 Wind from NW
Wind: NW 26 mph , 43 km/h, Gust: 36 mph , 57 km/h
Temperature: 37°F , 3°C
Wind Chill: 25°F , -4°C
Dew Point: 32°F , 0°C
Humidity: 81%
Barometer: 29.87 inHg , 1011.5 hPa
Clouds: Overcast
Visibility: 10 miles , 16 km
Cloud details: Overcast 2200 ft
2017/12/12 03:53 KMTO 120353Z AUTO 31023G31KT 10SM OVC022 03/00 A2987 RMK AO2 PK WND 32031/0347 SLP119 T00330000
KSPI - Springfield, Illinois, USA
Distance from station: WSW 74mi, 120km
Updated: Mon, 11-Dec-2017 10:13pm CST
Overcast
Overcast
 Wind from NW
Wind: NW 23 mph , 37 km/h, Gust: 35 mph , 56 km/h
Temperature: 39°F , 4°C
Wind Chill: 28°F , -2°C
Dew Point: 34°F , 1°C
Humidity: 81%
Barometer: 29.97 inHg , 1014.9 hPa
Clouds: Overcast
Visibility: 10 miles , 16 km
Cloud details: Overcast 1500 ft
2017/12/12 04:13 KSPI 120413Z AUTO 32020G30KT 10SM OVC015 04/01 A2997 RMK AO2 PK WND 32030/0404 T00440011
 
KLAF - Lafayette, Indiana, USA
Distance from station: E 76mi, 123km
Updated: Mon, 11-Dec-2017 10:07pm CST
Overcast
Overcast
 Wind from WNW
Wind: WNW 12 mph , 19 km/h
Temperature: 34°F , 1°C
Wind Chill: 25°F , -4°C
Dew Point: 30°F , -1°C
Humidity: 87%
Barometer: 29.80 inHg , 1009.1 hPa
Clouds: Overcast
Visibility: 9 miles , 14 km
Cloud details: Mostly cloudy 1300 ft
Overcast 4300 ft
2017/12/12 04:07 KLAF 120407Z 29010KT 9SM BKN013 OVC043 01/M01 A2980 RMK AO2 T00111011
KPIA - Peoria, Illinois, USA
Distance from station: WNW 76mi, 123km
Updated: Mon, 11-Dec-2017 9:54pm CST
Overcast
Overcast
 Wind from NNW
Wind: NNW 12 mph , 19 km/h, Gust: 25 mph , 41 km/h
Temperature: 36°F , 2°C
Wind Chill: 28°F , -2°C
Dew Point: 28°F , -2°C
Humidity: 75%
Barometer: 29.97 inHg , 1014.9 hPa
Clouds: Overcast
Visibility: 10 miles , 16 km
Cloud details: Overcast 1700 ft
2017/12/12 03:54 KPIA 120354Z 34010G22KT 300V360 10SM OVC017 02/M02 A2997 RMK AO2 PK WND 35029/0322 SLP155 T00221017
 
KHUF - Terre Haute, Indiana, USA
Distance from station: SE 77mi, 124km
Updated: Mon, 11-Dec-2017 10:19pm CST
Overcast
Overcast
 Wind from WNW
Wind: WNW 16 mph , 26 km/h, Gust: 24 mph , 39 km/h
Temperature: 37°F , 3°C
Wind Chill: 28°F , -2°C
Dew Point: 30°F , -1°C
Humidity: 75%
Barometer: 29.85 inHg , 1010.8 hPa
Clouds: Overcast
Visibility: 10 miles , 16 km
Cloud details: Mostly cloudy 1800 ft
Mostly cloudy 3700 ft
Overcast 4800 ft
2017/12/12 04:19 KHUF 120419Z 30014G21KT 10SM BKN018 BKN037 OVC048 03/M01 A2985 RMK AO2 T00281011
K1H2 - Effingham, Illinois, USA
Distance from station: S 80mi, 129km
Updated: Mon, 11-Dec-2017 10:15pm CST
Overcast
Overcast
 Wind from WNW
Wind: WNW 23 mph , 37 km/h, Gust: 30 mph , 48 km/h
Temperature: 41°F , 5°C
Wind Chill: 31°F , -1°C
Dew Point: 34°F , 1°C
Humidity: 76%
Barometer: 29.93 inHg , 1013.5 hPa
Clouds: Overcast
Visibility: 10 miles , 16 km
Cloud details: Overcast 1900 ft
2017/12/12 04:15 K1H2 120415Z AUTO 29020G26KT 10SM OVC019 05/01 A2993 RMK AO2 T00460011
 
KIND - Indianapolis, Indiana, USA
Distance from station: ESE 117mi, 133km
Updated: Mon, 11-Dec-2017 9:54pm CST
Mostly cloudy
Mostly cloudy
 Wind from WNW
Wind: WNW 24 mph , 39 km/h, Gust: 32 mph , 52 km/h
Temperature: 37°F , 3°C
Wind Chill: 26°F , -3°C
Dew Point: 27°F , -3°C
Humidity: 65%
Barometer: 29.76 inHg , 1007.8 hPa
Clouds: Mostly cloudy
Visibility: 10 miles , 16 km
Cloud details: Partly cloudy 5500 ft
Mostly cloudy 20000 ft
2017/12/12 03:54 KIND 120354Z 29021G28KT 10SM SCT055 BKN200 03/M03 A2976 RMK AO2 PK WND 29028/0348 SLP083 T00331028
KORD - Chicago O'hare, Illinois, USA
Distance from station: N 126mi, 203km
Updated: Mon, 11-Dec-2017 9:51pm CST
Overcast
Overcast
 Wind from NNW
Wind: NNW 23 mph , 37 km/h, Gust: 35 mph , 56 km/h
Temperature: 32°F , 0°C
Wind Chill: 19°F , -7°C
Dew Point: 27°F , -3°C
Humidity: 80%
Barometer: 29.86 inHg , 1011.2 hPa
Clouds: Overcast
Visibility: 9 miles , 14 km
Cloud details: Overcast 1800 ft
2017/12/12 03:51 KORD 120351Z 33020G30KT 9SM OVC018 00/M03 A2986 RMK AO2 PK WND 34030/0343 SLP118 T00001033
 
KSTL - St. Louis, Missouri, USA
Distance from station: SW 150mi, 185km
Updated: Mon, 11-Dec-2017 10:13pm CST
Overcast
Overcast
 Wind from NNW
Wind: NNW 20 mph , 31 km/h, Gust: 35 mph , 56 km/h
Temperature: 45°F , 7°C
Wind Chill: 37°F , 3°C
Dew Point: 34°F , 1°C
Humidity: 66%
Barometer: 30.00 inHg , 1015.9 hPa
Clouds: Overcast
Visibility: 10 miles , 16 km
Cloud details: Overcast 2800 ft
2017/12/12 04:13 KSTL 120413Z 33017G30KT 10SM OVC028 07/01 A3000 RMK AO2 PK WND 32030/0411 T00670011